Terminal Aerodrome Forecast
Issued by NWS

Home | Current Version | Previous Version | Graphics & Text | Print | Product List | Glossary On
Versions: 1 2 3 4 5 6 7 8 9 10 11 12 13
736
FTUS43 KIWX 211728
TAFSBN
TAF
KSBN 211728Z 2118/2218 25012G20KT P6SM BKN035
     FM212300 27010KT P6SM OVC030
     FM220700 26009KT P6SM BKN035
     FM221300 26010KT P6SM SCT250=

USA.gov is the U.S. government's official web portal to all federal, state and local government web resources and services.